Bradford Regional Airport
KBFD : now visible

Airfield :











YOU CAN JOIN US ON...

 
LOGIN :

Register | Disclaimer

   EN    FR    IT 

 









Legend :    VFR   Marginal VFR   IFR   Intensive IFR   Very Intensive IFR
Visi :
Ceiling :
>= 8 km
>= 3000ft
5 to 8 km
1000 to 3000 ft
1500m to 5 km
500 to 1000 ft
800 to 1500m
200 to 500 ft
< 800m
< 200 ft
Symbols :   Thunderstorms  Fog  Heavy snow  Heavy precipitations  Wind > 20 kt






- Airport Elevation : 2143 ft
- IATA code : BFD


KBFD - Bradford Regional

CURRENT METAR :
  • 072053Z AUTO 31003KT 10SM OVC040 12/04 A2976 RMK AO2 RAB08E23B41E53 SLP078 P0000 60000 T01220044 56020

EXPIRED METARs :
  • 071953Z AUTO 33004KT 10SM OVC042 14/04 A2977 RMK AO2 RAE47 SLP081 P0000 T01390039
  • 071853Z AUTO 21007KT 10SM -RA OVC041 15/01 A2979 RMK AO2 RAB49 SLP090 P0000 T01500006

TAF KBFD
Valid from the 07 at 19:00 until the 08 at 18:00 UTC


071905Z 0719/0818 21008KT P6SM -SHRA OVC045 WS020/26040KT
TEMPO 0719/0723 OVC025
FM080500 29004KT 5SM -SHRA VCTS OVC004CB WS020/26040KT
FM081600 30011G18KT P6SM OVC015



MET'MAP, your aeronautical weather chart ! - Copyright ORBIFLY December 2007 - Disclaimer

ORBIFLY MET'MAP TEAM :

Programming & Development : Alexandra Zaïnal
Concept & original design : Baudouin d'Aumeries
Assistance for programming : Marc-Olivier Méhu
Technical & hardware support : Manuel Goepfert

Contact : metmap@orbifly.com




SOURCES & CREDITS :

   NOAA       Earth
Advisory